sensor_id;sensor_type;location;lat;lon;timestamp;P1;durP1;ratioP1;P2;durP2;ratioP2
20038;SDS011;21737;42.868;25.320;2023-02-22T00:01:39;8.43;;;4.17;;
20038;SDS011;21737;42.868;25.320;2023-02-22T00:04:52;7.77;;;3.60;;
20038;SDS011;21737;42.868;25.320;2023-02-22T00:07:54;9.57;;;4.43;;
20038;SDS011;21737;42.868;25.320;2023-02-22T00:11:06;9.00;;;4.20;;
20038;SDS011;21737;42.868;25.320;2023-02-22T00:14:10;9.50;;;5.17;;
20038;SDS011;21737;42.868;25.320;2023-02-22T00:17:12;13.77;;;6.20;;
20038;SDS011;21737;42.868;25.320;2023-02-22T00:20:16;9.07;;;4.77;;
20038;SDS011;21737;42.868;25.320;2023-02-22T00:23:20;11.67;;;5.57;;
20038;SDS011;21737;42.868;25.320;2023-02-22T00:26:22;12.17;;;5.37;;
20038;SDS011;21737;42.868;25.320;2023-02-22T00:29:24;11.50;;;5.30;;
20038;SDS011;21737;42.868;25.320;2023-02-22T00:32:25;13.97;;;8.60;;
20038;SDS011;21737;42.868;25.320;2023-02-22T00:35:28;12.77;;;7.40;;
20038;SDS011;21737;42.868;25.320;2023-02-22T00:38:31;12.07;;;7.30;;
20038;SDS011;21737;42.868;25.320;2023-02-22T00:41:32;12.57;;;6.93;;
20038;SDS011;21737;42.868;25.320;2023-02-22T00:44:36;13.83;;;7.60;;
20038;SDS011;21737;42.868;25.320;2023-02-22T00:47:38;13.00;;;6.90;;
20038;SDS011;21737;42.868;25.320;2023-02-22T00:50:40;13.43;;;7.63;;
20038;SDS011;21737;42.868;25.320;2023-02-22T00:53:42;13.33;;;7.27;;
20038;SDS011;21737;42.868;25.320;2023-02-22T00:56:43;13.00;;;7.37;;
20038;SDS011;21737;42.868;25.320;2023-02-22T00:59:45;14.50;;;7.03;;
20038;SDS011;21737;42.868;25.320;2023-02-22T01:02:47;14.27;;;7.43;;
20038;SDS011;21737;42.868;25.320;2023-02-22T01:05:51;12.23;;;6.80;;
20038;SDS011;21737;42.868;25.320;2023-02-22T01:08:53;16.00;;;7.30;;
20038;SDS011;21737;42.868;25.320;2023-02-22T01:11:57;12.80;;;7.30;;
20038;SDS011;21737;42.868;25.320;2023-02-22T01:14:59;15.77;;;7.30;;
20038;SDS011;21737;42.868;25.320;2023-02-22T01:18:01;14.93;;;8.57;;
20038;SDS011;21737;42.868;25.320;2023-02-22T01:21:03;13.23;;;7.60;;
20038;SDS011;21737;42.868;25.320;2023-02-22T01:24:04;12.63;;;6.53;;
20038;SDS011;21737;42.868;25.320;2023-02-22T01:27:06;13.80;;;7.47;;
20038;SDS011;21737;42.868;25.320;2023-02-22T01:30:09;13.73;;;7.40;;
20038;SDS011;21737;42.868;25.320;2023-02-22T01:33:12;13.70;;;7.23;;
20038;SDS011;21737;42.868;25.320;2023-02-22T01:36:16;14.70;;;7.80;;
20038;SDS011;21737;42.868;25.320;2023-02-22T01:39:19;14.10;;;7.70;;
20038;SDS011;21737;42.868;25.320;2023-02-22T01:42:21;14.43;;;8.47;;
20038;SDS011;21737;42.868;25.320;2023-02-22T01:48:40;19.83;;;10.47;;
20038;SDS011;21737;42.868;25.320;2023-02-22T01:51:46;17.27;;;9.20;;
20038;SDS011;21737;42.868;25.320;2023-02-22T01:54:53;16.40;;;9.97;;
20038;SDS011;21737;42.868;25.320;2023-02-22T01:57:57;12.67;;;7.73;;
20038;SDS011;21737;42.868;25.320;2023-02-22T02:01:00;14.30;;;7.73;;
20038;SDS011;21737;42.868;25.320;2023-02-22T02:04:03;16.10;;;8.50;;
20038;SDS011;21737;42.868;25.320;2023-02-22T02:07:06;14.30;;;7.70;;
20038;SDS011;21737;42.868;25.320;2023-02-22T02:10:10;15.03;;;8.87;;
20038;SDS011;21737;42.868;25.320;2023-02-22T02:13:15;15.03;;;7.60;;
20038;SDS011;21737;42.868;25.320;2023-02-22T02:16:16;15.57;;;7.13;;
20038;SDS011;21737;42.868;25.320;2023-02-22T02:38:24;14.37;;;7.07;;
20038;SDS011;21737;42.868;25.320;2023-02-22T02:41:31;14.10;;;7.30;;
20038;SDS011;21737;42.868;25.320;2023-02-22T02:44:40;16.03;;;8.03;;
20038;SDS011;21737;42.868;25.320;2023-02-22T02:47:51;12.80;;;7.67;;
20038;SDS011;21737;42.868;25.320;2023-02-22T02:50:54;14.40;;;8.03;;
20038;SDS011;21737;42.868;25.320;2023-02-22T02:53:56;15.00;;;8.10;;
20038;SDS011;21737;42.868;25.320;2023-02-22T02:56:59;14.97;;;8.53;;
20038;SDS011;21737;42.868;25.320;2023-02-22T03:00:01;15.97;;;9.43;;
20038;SDS011;21737;42.868;25.320;2023-02-22T03:06:46;19.10;;;8.17;;
20038;SDS011;21737;42.868;25.320;2023-02-22T03:19:59;19.77;;;8.37;;
20038;SDS011;21737;42.868;25.320;2023-02-22T03:26:08;14.53;;;7.90;;
20038;SDS011;21737;42.868;25.320;2023-02-22T03:29:14;15.43;;;7.07;;
20038;SDS011;21737;42.868;25.320;2023-02-22T03:32:23;14.50;;;7.43;;
20038;SDS011;21737;42.868;25.320;2023-02-22T03:35:30;17.73;;;7.77;;
20038;SDS011;21737;42.868;25.320;2023-02-22T03:38:35;11.83;;;6.77;;
20038;SDS011;21737;42.868;25.320;2023-02-22T03:41:38;28.90;;;9.07;;
20038;SDS011;21737;42.868;25.320;2023-02-22T03:44:40;15.03;;;7.90;;
20038;SDS011;21737;42.868;25.320;2023-02-22T03:47:45;12.00;;;6.53;;
20038;SDS011;21737;42.868;25.320;2023-02-22T03:50:50;13.87;;;6.53;;
20038;SDS011;21737;42.868;25.320;2023-02-22T03:53:55;13.17;;;6.73;;
20038;SDS011;21737;42.868;25.320;2023-02-22T03:57:08;14.07;;;7.10;;
20038;SDS011;21737;42.868;25.320;2023-02-22T04:00:17;13.47;;;7.43;;
20038;SDS011;21737;42.868;25.320;2023-02-22T04:03:20;14.10;;;7.13;;
20038;SDS011;21737;42.868;25.320;2023-02-22T04:06:23;16.23;;;8.10;;
20038;SDS011;21737;42.868;25.320;2023-02-22T04:09:26;19.33;;;10.23;;
20038;SDS011;21737;42.868;25.320;2023-02-22T04:12:29;14.30;;;8.57;;
20038;SDS011;21737;42.868;25.320;2023-02-22T04:15:35;11.53;;;6.83;;
20038;SDS011;21737;42.868;25.320;2023-02-22T04:18:39;15.83;;;7.33;;
20038;SDS011;21737;42.868;25.320;2023-02-22T04:21:41;13.73;;;7.17;;
20038;SDS011;21737;42.868;25.320;2023-02-22T04:24:50;17.83;;;8.67;;
20038;SDS011;21737;42.868;25.320;2023-02-22T04:27:52;15.63;;;7.83;;
20038;SDS011;21737;42.868;25.320;2023-02-22T04:31:02;19.37;;;8.97;;
20038;SDS011;21737;42.868;25.320;2023-02-22T04:34:05;19.43;;;10.20;;
20038;SDS011;21737;42.868;25.320;2023-02-22T04:37:10;25.20;;;10.03;;
20038;SDS011;21737;42.868;25.320;2023-02-22T04:40:12;20.30;;;9.10;;
20038;SDS011;21737;42.868;25.320;2023-02-22T04:43:14;17.93;;;9.37;;
20038;SDS011;21737;42.868;25.320;2023-02-22T04:46:16;21.43;;;9.83;;
20038;SDS011;21737;42.868;25.320;2023-02-22T04:49:18;23.17;;;11.47;;
20038;SDS011;21737;42.868;25.320;2023-02-22T04:52:21;22.20;;;10.87;;
20038;SDS011;21737;42.868;25.320;2023-02-22T04:55:23;19.93;;;9.13;;
20038;SDS011;21737;42.868;25.320;2023-02-22T04:58:25;18.73;;;8.83;;
20038;SDS011;21737;42.868;25.320;2023-02-22T05:01:30;24.57;;;11.33;;
20038;SDS011;21737;42.868;25.320;2023-02-22T05:04:36;21.43;;;10.10;;
20038;SDS011;21737;42.868;25.320;2023-02-22T05:07:38;15.67;;;8.37;;
20038;SDS011;21737;42.868;25.320;2023-02-22T05:10:40;19.40;;;9.20;;
20038;SDS011;21737;42.868;25.320;2023-02-22T05:13:41;19.30;;;10.77;;
20038;SDS011;21737;42.868;25.320;2023-02-22T05:16:44;20.27;;;10.57;;
20038;SDS011;21737;42.868;25.320;2023-02-22T05:19:45;22.47;;;9.77;;
20038;SDS011;21737;42.868;25.320;2023-02-22T05:22:48;17.30;;;8.97;;
20038;SDS011;21737;42.868;25.320;2023-02-22T05:25:54;22.00;;;10.90;;
20038;SDS011;21737;42.868;25.320;2023-02-22T05:28:56;16.63;;;9.20;;
20038;SDS011;21737;42.868;25.320;2023-02-22T05:31:58;20.30;;;10.03;;
20038;SDS011;21737;42.868;25.320;2023-02-22T05:35:00;25.67;;;12.23;;
20038;SDS011;21737;42.868;25.320;2023-02-22T05:38:02;20.50;;;10.40;;
20038;SDS011;21737;42.868;25.320;2023-02-22T05:41:04;20.03;;;11.27;;
20038;SDS011;21737;42.868;25.320;2023-02-22T05:44:05;22.53;;;11.67;;
20038;SDS011;21737;42.868;25.320;2023-02-22T05:47:07;27.27;;;13.00;;
20038;SDS011;21737;42.868;25.320;2023-02-22T05:50:09;27.83;;;13.23;;
20038;SDS011;21737;42.868;25.320;2023-02-22T05:53:10;28.50;;;13.37;;
20038;SDS011;21737;42.868;25.320;2023-02-22T05:56:12;35.93;;;16.43;;
20038;SDS011;21737;42.868;25.320;2023-02-22T05:59:14;40.57;;;15.80;;
20038;SDS011;21737;42.868;25.320;2023-02-22T06:02:15;28.43;;;16.30;;
20038;SDS011;21737;42.868;25.320;2023-02-22T06:05:17;38.27;;;18.47;;
20038;SDS011;21737;42.868;25.320;2023-02-22T06:08:19;39.53;;;17.67;;
20038;SDS011;21737;42.868;25.320;2023-02-22T06:11:20;36.13;;;18.33;;
20038;SDS011;21737;42.868;25.320;2023-02-22T06:14:22;33.13;;;17.30;;
20038;SDS011;21737;42.868;25.320;2023-02-22T06:17:24;40.13;;;18.17;;
20038;SDS011;21737;42.868;25.320;2023-02-22T06:20:27;46.97;;;21.60;;
20038;SDS011;21737;42.868;25.320;2023-02-22T06:23:28;43.93;;;20.37;;
20038;SDS011;21737;42.868;25.320;2023-02-22T06:26:30;37.67;;;19.33;;
20038;SDS011;21737;42.868;25.320;2023-02-22T06:29:32;36.67;;;18.33;;
20038;SDS011;21737;42.868;25.320;2023-02-22T06:32:33;34.80;;;18.17;;
20038;SDS011;21737;42.868;25.320;2023-02-22T06:35:35;38.67;;;18.23;;
20038;SDS011;21737;42.868;25.320;2023-02-22T06:38:37;37.70;;;18.30;;
20038;SDS011;21737;42.868;25.320;2023-02-22T06:41:39;43.00;;;21.30;;
20038;SDS011;21737;42.868;25.320;2023-02-22T06:44:40;42.50;;;19.43;;
20038;SDS011;21737;42.868;25.320;2023-02-22T06:47:42;44.00;;;21.63;;
20038;SDS011;21737;42.868;25.320;2023-02-22T06:50:44;49.40;;;25.03;;
20038;SDS011;21737;42.868;25.320;2023-02-22T06:53:45;56.27;;;29.30;;
20038;SDS011;21737;42.868;25.320;2023-02-22T06:56:47;36.73;;;20.77;;
20038;SDS011;21737;42.868;25.320;2023-02-22T06:59:49;35.37;;;16.50;;
20038;SDS011;21737;42.868;25.320;2023-02-22T07:02:53;31.93;;;16.67;;
20038;SDS011;21737;42.868;25.320;2023-02-22T07:05:55;15.60;;;8.60;;
20038;SDS011;21737;42.868;25.320;2023-02-22T07:08:56;13.90;;;5.33;;
20038;SDS011;21737;42.868;25.320;2023-02-22T07:11:58;18.30;;;11.67;;
20038;SDS011;21737;42.868;25.320;2023-02-22T07:15:00;9.00;;;5.73;;
20038;SDS011;21737;42.868;25.320;2023-02-22T07:18:01;5.20;;;3.27;;
20038;SDS011;21737;42.868;25.320;2023-02-22T07:21:04;8.33;;;4.37;;
20038;SDS011;21737;42.868;25.320;2023-02-22T07:24:06;9.47;;;4.47;;
20038;SDS011;21737;42.868;25.320;2023-02-22T07:27:07;5.53;;;2.90;;
20038;SDS011;21737;42.868;25.320;2023-02-22T07:30:19;4.80;;;2.60;;
20038;SDS011;21737;42.868;25.320;2023-02-22T07:33:25;17.63;;;9.80;;
20038;SDS011;21737;42.868;25.320;2023-02-22T07:36:27;9.33;;;3.47;;
20038;SDS011;21737;42.868;25.320;2023-02-22T07:39:28;6.57;;;3.37;;
20038;SDS011;21737;42.868;25.320;2023-02-22T07:42:30;11.13;;;3.67;;
20038;SDS011;21737;42.868;25.320;2023-02-22T07:45:34;13.87;;;3.87;;
20038;SDS011;21737;42.868;25.320;2023-02-22T07:48:36;8.40;;;3.83;;
20038;SDS011;21737;42.868;25.320;2023-02-22T07:51:37;7.90;;;3.70;;
20038;SDS011;21737;42.868;25.320;2023-02-22T07:54:39;10.57;;;3.80;;
20038;SDS011;21737;42.868;25.320;2023-02-22T07:57:41;8.47;;;3.07;;
20038;SDS011;21737;42.868;25.320;2023-02-22T08:00:43;6.33;;;3.90;;
20038;SDS011;21737;42.868;25.320;2023-02-22T08:03:44;9.33;;;3.57;;
20038;SDS011;21737;42.868;25.320;2023-02-22T08:06:48;9.30;;;3.80;;
20038;SDS011;21737;42.868;25.320;2023-02-22T08:09:50;7.30;;;3.77;;
20038;SDS011;21737;42.868;25.320;2023-02-22T08:12:52;4.87;;;2.87;;
20038;SDS011;21737;42.868;25.320;2023-02-22T08:15:54;6.40;;;4.07;;
20038;SDS011;21737;42.868;25.320;2023-02-22T08:18:56;8.17;;;3.77;;
20038;SDS011;21737;42.868;25.320;2023-02-22T08:21:58;9.67;;;3.97;;
20038;SDS011;21737;42.868;25.320;2023-02-22T08:24:59;6.97;;;4.57;;
20038;SDS011;21737;42.868;25.320;2023-02-22T08:28:03;9.67;;;3.70;;
20038;SDS011;21737;42.868;25.320;2023-02-22T08:31:05;9.93;;;3.80;;
20038;SDS011;21737;42.868;25.320;2023-02-22T08:34:09;7.00;;;3.60;;
20038;SDS011;21737;42.868;25.320;2023-02-22T08:37:10;11.03;;;3.70;;
20038;SDS011;21737;42.868;25.320;2023-02-22T08:40:12;3.97;;;2.90;;
20038;SDS011;21737;42.868;25.320;2023-02-22T08:43:16;11.77;;;3.70;;
20038;SDS011;21737;42.868;25.320;2023-02-22T08:46:17;7.77;;;3.50;;
20038;SDS011;21737;42.868;25.320;2023-02-22T08:49:19;8.20;;;4.30;;
20038;SDS011;21737;42.868;25.320;2023-02-22T08:52:21;11.90;;;3.87;;
20038;SDS011;21737;42.868;25.320;2023-02-22T08:55:23;15.80;;;3.60;;
20038;SDS011;21737;42.868;25.320;2023-02-22T08:58:25;9.40;;;3.60;;
20038;SDS011;21737;42.868;25.320;2023-02-22T09:01:27;10.77;;;3.70;;
20038;SDS011;21737;42.868;25.320;2023-02-22T09:04:33;9.50;;;3.80;;
20038;SDS011;21737;42.868;25.320;2023-02-22T09:07:35;8.83;;;3.60;;
20038;SDS011;21737;42.868;25.320;2023-02-22T09:10:37;10.67;;;4.17;;
20038;SDS011;21737;42.868;25.320;2023-02-22T09:13:38;7.10;;;3.50;;
20038;SDS011;21737;42.868;25.320;2023-02-22T09:16:41;8.07;;;3.23;;
20038;SDS011;21737;42.868;25.320;2023-02-22T09:19:43;6.43;;;3.50;;
20038;SDS011;21737;42.868;25.320;2023-02-22T09:22:46;5.60;;;3.30;;
20038;SDS011;21737;42.868;25.320;2023-02-22T09:25:48;6.83;;;3.47;;
20038;SDS011;21737;42.868;25.320;2023-02-22T09:28:50;8.33;;;4.10;;
20038;SDS011;21737;42.868;25.320;2023-02-22T09:31:52;7.60;;;3.27;;
20038;SDS011;21737;42.868;25.320;2023-02-22T09:34:55;4.17;;;3.00;;
20038;SDS011;21737;42.868;25.320;2023-02-22T09:37:57;5.70;;;3.17;;
20038;SDS011;21737;42.868;25.320;2023-02-22T09:41:23;14.30;;;4.40;;
20038;SDS011;21737;42.868;25.320;2023-02-22T09:44:23;10.23;;;3.67;;
20038;SDS011;21737;42.868;25.320;2023-02-22T09:50:40;7.10;;;3.30;;
20038;SDS011;21737;42.868;25.320;2023-02-22T09:53:43;7.20;;;3.10;;
20038;SDS011;21737;42.868;25.320;2023-02-22T09:56:46;5.90;;;3.50;;
20038;SDS011;21737;42.868;25.320;2023-02-22T10:00:03;7.63;;;3.97;;
20038;SDS011;21737;42.868;25.320;2023-02-22T10:03:28;5.63;;;4.50;;
20038;SDS011;21737;42.868;25.320;2023-02-22T10:06:33;11.00;;;4.70;;
20038;SDS011;21737;42.868;25.320;2023-02-22T10:09:36;7.70;;;3.90;;
20038;SDS011;21737;42.868;25.320;2023-02-22T10:25:19;9.13;;;3.47;;
20038;SDS011;21737;42.868;25.320;2023-02-22T10:28:46;6.93;;;3.77;;
20038;SDS011;21737;42.868;25.320;2023-02-22T10:31:45;49.87;;;18.77;;
20038;SDS011;21737;42.868;25.320;2023-02-22T10:34:48;5.47;;;2.90;;
20038;SDS011;21737;42.868;25.320;2023-02-22T10:38:05;5.57;;;3.77;;
20038;SDS011;21737;42.868;25.320;2023-02-22T10:44:09;8.57;;;3.83;;
20038;SDS011;21737;42.868;25.320;2023-02-22T10:47:11;9.83;;;3.40;;
20038;SDS011;21737;42.868;25.320;2023-02-22T10:50:18;8.87;;;4.03;;
20038;SDS011;21737;42.868;25.320;2023-02-22T10:53:21;16.63;;;4.93;;
20038;SDS011;21737;42.868;25.320;2023-02-22T10:56:24;9.53;;;3.47;;
20038;SDS011;21737;42.868;25.320;2023-02-22T10:59:28;7.83;;;3.87;;
20038;SDS011;21737;42.868;25.320;2023-02-22T11:02:31;6.10;;;3.10;;
20038;SDS011;21737;42.868;25.320;2023-02-22T11:05:37;6.53;;;3.10;;
20038;SDS011;21737;42.868;25.320;2023-02-22T11:08:39;5.67;;;4.03;;
20038;SDS011;21737;42.868;25.320;2023-02-22T11:11:43;9.97;;;4.80;;
20038;SDS011;21737;42.868;25.320;2023-02-22T11:14:46;6.23;;;3.30;;
20038;SDS011;21737;42.868;25.320;2023-02-22T11:17:52;6.73;;;2.73;;
20038;SDS011;21737;42.868;25.320;2023-02-22T11:20:59;6.60;;;4.07;;
20038;SDS011;21737;42.868;25.320;2023-02-22T11:24:03;5.23;;;2.77;;
20038;SDS011;21737;42.868;25.320;2023-02-22T11:27:05;5.13;;;3.30;;
20038;SDS011;21737;42.868;25.320;2023-02-22T11:36:16;4.63;;;3.10;;
20038;SDS011;21737;42.868;25.320;2023-02-22T11:39:30;5.53;;;3.63;;
20038;SDS011;21737;42.868;25.320;2023-02-22T11:42:35;4.40;;;3.00;;
20038;SDS011;21737;42.868;25.320;2023-02-22T11:45:38;7.13;;;4.17;;
20038;SDS011;21737;42.868;25.320;2023-02-22T11:48:59;7.17;;;3.43;;
20038;SDS011;21737;42.868;25.320;2023-02-22T11:52:15;7.80;;;3.63;;
20038;SDS011;21737;42.868;25.320;2023-02-22T11:58:53;8.67;;;3.47;;
20038;SDS011;21737;42.868;25.320;2023-02-22T12:08:51;5.50;;;3.30;;
20038;SDS011;21737;42.868;25.320;2023-02-22T12:15:04;3.53;;;2.50;;
20038;SDS011;21737;42.868;25.320;2023-02-22T12:21:16;4.70;;;3.53;;
20038;SDS011;21737;42.868;25.320;2023-02-22T12:24:24;3.73;;;2.50;;
20038;SDS011;21737;42.868;25.320;2023-02-22T12:28:15;4.60;;;2.70;;
20038;SDS011;21737;42.868;25.320;2023-02-22T12:31:34;5.67;;;2.90;;
20038;SDS011;21737;42.868;25.320;2023-02-22T12:37:26;10.40;;;3.57;;
20038;SDS011;21737;42.868;25.320;2023-02-22T12:40:47;6.13;;;2.80;;
20038;SDS011;21737;42.868;25.320;2023-02-22T12:46:56;10.37;;;2.70;;
20038;SDS011;21737;42.868;25.320;2023-02-22T12:50:11;6.60;;;3.30;;
20038;SDS011;21737;42.868;25.320;2023-02-22T12:53:18;4.40;;;3.53;;
20038;SDS011;21737;42.868;25.320;2023-02-22T12:59:31;4.57;;;3.40;;
20038;SDS011;21737;42.868;25.320;2023-02-22T13:02:37;9.07;;;4.40;;
20038;SDS011;21737;42.868;25.320;2023-02-22T13:05:40;6.60;;;3.17;;
20038;SDS011;21737;42.868;25.320;2023-02-22T13:18:21;6.10;;;3.00;;
20038;SDS011;21737;42.868;25.320;2023-02-22T13:27:54;6.37;;;2.73;;
20038;SDS011;21737;42.868;25.320;2023-02-22T13:34:42;4.87;;;3.30;;
20038;SDS011;21737;42.868;25.320;2023-02-22T13:56:50;5.53;;;2.43;;
20038;SDS011;21737;42.868;25.320;2023-02-22T14:06:34;3.03;;;1.87;;
20038;SDS011;21737;42.868;25.320;2023-02-22T14:09:56;6.53;;;2.87;;
20038;SDS011;21737;42.868;25.320;2023-02-22T14:13:07;4.17;;;2.43;;
20038;SDS011;21737;42.868;25.320;2023-02-22T14:22:15;8.33;;;2.57;;
20038;SDS011;21737;42.868;25.320;2023-02-22T14:28:41;8.90;;;2.93;;
20038;SDS011;21737;42.868;25.320;2023-02-22T14:34:55;3.20;;;2.20;;
20038;SDS011;21737;42.868;25.320;2023-02-22T14:38:01;7.43;;;3.07;;
20038;SDS011;21737;42.868;25.320;2023-02-22T14:41:03;15.73;;;4.27;;
20038;SDS011;21737;42.868;25.320;2023-02-22T14:44:05;6.67;;;3.30;;
20038;SDS011;21737;42.868;25.320;2023-02-22T14:47:12;7.20;;;3.43;;
20038;SDS011;21737;42.868;25.320;2023-02-22T14:50:19;6.40;;;3.43;;
20038;SDS011;21737;42.868;25.320;2023-02-22T14:53:35;11.37;;;3.57;;
20038;SDS011;21737;42.868;25.320;2023-02-22T14:56:51;8.57;;;3.70;;
20038;SDS011;21737;42.868;25.320;2023-02-22T15:02:58;7.07;;;3.50;;
20038;SDS011;21737;42.868;25.320;2023-02-22T15:06:11;15.60;;;5.70;;
20038;SDS011;21737;42.868;25.320;2023-02-22T15:09:16;6.67;;;3.80;;
20038;SDS011;21737;42.868;25.320;2023-02-22T15:12:32;8.67;;;4.20;;
20038;SDS011;21737;42.868;25.320;2023-02-22T15:15:40;7.87;;;3.80;;
20038;SDS011;21737;42.868;25.320;2023-02-22T15:18:51;10.93;;;3.63;;
20038;SDS011;21737;42.868;25.320;2023-02-22T15:21:54;7.80;;;3.77;;
20038;SDS011;21737;42.868;25.320;2023-02-22T15:25:00;10.83;;;4.33;;
20038;SDS011;21737;42.868;25.320;2023-02-22T15:28:02;16.07;;;6.37;;
20038;SDS011;21737;42.868;25.320;2023-02-22T15:31:14;8.40;;;4.33;;
20038;SDS011;21737;42.868;25.320;2023-02-22T15:34:18;12.80;;;5.60;;
20038;SDS011;21737;42.868;25.320;2023-02-22T15:37:24;23.17;;;6.10;;
20038;SDS011;21737;42.868;25.320;2023-02-22T15:40:28;12.83;;;6.00;;
20038;SDS011;21737;42.868;25.320;2023-02-22T15:43:33;9.13;;;5.27;;
20038;SDS011;21737;42.868;25.320;2023-02-22T15:46:35;11.67;;;5.50;;
20038;SDS011;21737;42.868;25.320;2023-02-22T15:49:37;5.97;;;4.03;;
20038;SDS011;21737;42.868;25.320;2023-02-22T15:52:40;18.83;;;7.87;;
20038;SDS011;21737;42.868;25.320;2023-02-22T15:55:46;36.23;;;12.37;;
20038;SDS011;21737;42.868;25.320;2023-02-22T15:58:49;37.27;;;12.93;;
20038;SDS011;21737;42.868;25.320;2023-02-22T16:01:52;34.07;;;11.37;;
20038;SDS011;21737;42.868;25.320;2023-02-22T16:05:12;33.87;;;12.17;;
20038;SDS011;21737;42.868;25.320;2023-02-22T16:09:06;45.70;;;16.73;;
20038;SDS011;21737;42.868;25.320;2023-02-22T16:15:13;35.97;;;15.13;;
20038;SDS011;21737;42.868;25.320;2023-02-22T16:18:26;40.87;;;16.70;;
20038;SDS011;21737;42.868;25.320;2023-02-22T16:21:38;31.53;;;15.07;;
20038;SDS011;21737;42.868;25.320;2023-02-22T16:24:50;39.87;;;17.77;;
20038;SDS011;21737;42.868;25.320;2023-02-22T16:27:54;40.43;;;15.80;;
20038;SDS011;21737;42.868;25.320;2023-02-22T16:30:57;34.97;;;13.83;;
20038;SDS011;21737;42.868;25.320;2023-02-22T16:34:00;31.00;;;13.03;;
20038;SDS011;21737;42.868;25.320;2023-02-22T16:37:02;54.00;;;27.20;;
20038;SDS011;21737;42.868;25.320;2023-02-22T16:40:04;81.70;;;35.50;;
20038;SDS011;21737;42.868;25.320;2023-02-22T16:43:15;95.27;;;44.13;;
20038;SDS011;21737;42.868;25.320;2023-02-22T16:46:17;107.83;;;54.37;;
20038;SDS011;21737;42.868;25.320;2023-02-22T16:49:20;68.03;;;30.60;;
20038;SDS011;21737;42.868;25.320;2023-02-22T16:52:23;62.57;;;31.67;;
20038;SDS011;21737;42.868;25.320;2023-02-22T16:55:25;54.33;;;29.63;;
20038;SDS011;21737;42.868;25.320;2023-02-22T16:58:27;67.73;;;35.30;;
20038;SDS011;21737;42.868;25.320;2023-02-22T17:01:29;66.23;;;34.60;;
20038;SDS011;21737;42.868;25.320;2023-02-22T17:04:35;72.97;;;39.77;;
20038;SDS011;21737;42.868;25.320;2023-02-22T17:07:37;73.10;;;40.30;;
20038;SDS011;21737;42.868;25.320;2023-02-22T17:10:41;76.50;;;41.80;;
20038;SDS011;21737;42.868;25.320;2023-02-22T17:13:42;73.83;;;41.73;;
20038;SDS011;21737;42.868;25.320;2023-02-22T17:16:46;69.33;;;39.47;;
20038;SDS011;21737;42.868;25.320;2023-02-22T17:19:47;75.50;;;45.00;;
20038;SDS011;21737;42.868;25.320;2023-02-22T17:22:49;66.27;;;38.93;;
20038;SDS011;21737;42.868;25.320;2023-02-22T17:26:01;60.17;;;29.20;;
20038;SDS011;21737;42.868;25.320;2023-02-22T17:29:03;62.17;;;31.73;;
20038;SDS011;21737;42.868;25.320;2023-02-22T17:32:05;51.40;;;25.93;;
20038;SDS011;21737;42.868;25.320;2023-02-22T17:35:07;56.17;;;26.60;;
20038;SDS011;21737;42.868;25.320;2023-02-22T17:38:09;61.87;;;32.67;;
20038;SDS011;21737;42.868;25.320;2023-02-22T17:41:11;51.57;;;26.80;;
20038;SDS011;21737;42.868;25.320;2023-02-22T17:44:12;66.97;;;37.43;;
20038;SDS011;21737;42.868;25.320;2023-02-22T17:47:14;66.90;;;38.13;;
20038;SDS011;21737;42.868;25.320;2023-02-22T17:50:17;64.77;;;33.90;;
20038;SDS011;21737;42.868;25.320;2023-02-22T17:53:19;44.07;;;22.90;;
20038;SDS011;21737;42.868;25.320;2023-02-22T17:56:25;35.60;;;17.70;;
20038;SDS011;21737;42.868;25.320;2023-02-22T17:59:27;35.10;;;17.37;;
20038;SDS011;21737;42.868;25.320;2023-02-22T18:02:28;35.90;;;20.80;;
20038;SDS011;21737;42.868;25.320;2023-02-22T18:05:30;33.00;;;16.60;;
20038;SDS011;21737;42.868;25.320;2023-02-22T18:08:33;33.87;;;19.30;;
20038;SDS011;21737;42.868;25.320;2023-02-22T18:11:35;29.83;;;15.77;;
20038;SDS011;21737;42.868;25.320;2023-02-22T18:14:37;37.47;;;19.53;;
20038;SDS011;21737;42.868;25.320;2023-02-22T18:17:39;26.60;;;13.70;;
20038;SDS011;21737;42.868;25.320;2023-02-22T18:20:41;30.17;;;15.67;;
20038;SDS011;21737;42.868;25.320;2023-02-22T18:23:44;22.53;;;13.13;;
20038;SDS011;21737;42.868;25.320;2023-02-22T18:26:45;25.97;;;14.77;;
20038;SDS011;21737;42.868;25.320;2023-02-22T18:29:54;26.20;;;14.73;;
20038;SDS011;21737;42.868;25.320;2023-02-22T18:32:56;30.73;;;15.40;;
20038;SDS011;21737;42.868;25.320;2023-02-22T18:35:58;21.17;;;12.27;;
20038;SDS011;21737;42.868;25.320;2023-02-22T18:39:00;21.07;;;11.10;;
20038;SDS011;21737;42.868;25.320;2023-02-22T18:42:01;24.33;;;13.00;;
20038;SDS011;21737;42.868;25.320;2023-02-22T18:45:03;43.00;;;21.20;;
20038;SDS011;21737;42.868;25.320;2023-02-22T18:48:05;21.23;;;11.77;;
20038;SDS011;21737;42.868;25.320;2023-02-22T18:51:08;33.33;;;17.07;;
20038;SDS011;21737;42.868;25.320;2023-02-22T18:54:11;43.17;;;20.93;;
20038;SDS011;21737;42.868;25.320;2023-02-22T18:57:12;32.07;;;17.03;;
20038;SDS011;21737;42.868;25.320;2023-02-22T19:00:15;42.80;;;17.93;;
20038;SDS011;21737;42.868;25.320;2023-02-22T19:03:17;42.10;;;20.07;;
20038;SDS011;21737;42.868;25.320;2023-02-22T19:06:19;19.03;;;10.10;;
20038;SDS011;21737;42.868;25.320;2023-02-22T19:09:23;16.50;;;9.17;;
20038;SDS011;21737;42.868;25.320;2023-02-22T19:12:25;16.17;;;7.57;;
20038;SDS011;21737;42.868;25.320;2023-02-22T19:15:27;32.10;;;11.57;;
20038;SDS011;21737;42.868;25.320;2023-02-22T19:18:29;25.27;;;10.20;;
20038;SDS011;21737;42.868;25.320;2023-02-22T19:21:31;30.10;;;11.83;;
20038;SDS011;21737;42.868;25.320;2023-02-22T19:24:36;26.17;;;12.37;;
20038;SDS011;21737;42.868;25.320;2023-02-22T19:27:40;27.23;;;12.70;;
20038;SDS011;21737;42.868;25.320;2023-02-22T19:30:44;38.43;;;16.60;;
20038;SDS011;21737;42.868;25.320;2023-02-22T19:33:46;33.07;;;14.13;;
20038;SDS011;21737;42.868;25.320;2023-02-22T19:36:51;30.37;;;13.47;;
20038;SDS011;21737;42.868;25.320;2023-02-22T19:39:52;29.70;;;14.87;;
20038;SDS011;21737;42.868;25.320;2023-02-22T19:42:54;34.30;;;15.67;;
20038;SDS011;21737;42.868;25.320;2023-02-22T19:45:57;28.77;;;14.60;;
20038;SDS011;21737;42.868;25.320;2023-02-22T19:48:59;25.13;;;13.10;;
20038;SDS011;21737;42.868;25.320;2023-02-22T19:52:02;23.33;;;10.53;;
20038;SDS011;21737;42.868;25.320;2023-02-22T19:55:07;20.93;;;10.47;;
20038;SDS011;21737;42.868;25.320;2023-02-22T19:58:15;24.70;;;11.73;;
20038;SDS011;21737;42.868;25.320;2023-02-22T20:01:18;24.67;;;11.13;;
20038;SDS011;21737;42.868;25.320;2023-02-22T20:04:24;17.67;;;8.80;;
20038;SDS011;21737;42.868;25.320;2023-02-22T20:07:26;22.27;;;10.43;;
20038;SDS011;21737;42.868;25.320;2023-02-22T20:10:27;16.70;;;7.83;;
20038;SDS011;21737;42.868;25.320;2023-02-22T20:13:29;21.27;;;10.70;;
20038;SDS011;21737;42.868;25.320;2023-02-22T20:16:31;19.47;;;10.43;;
20038;SDS011;21737;42.868;25.320;2023-02-22T20:19:33;20.47;;;9.83;;
20038;SDS011;21737;42.868;25.320;2023-02-22T20:22:37;20.30;;;11.07;;
20038;SDS011;21737;42.868;25.320;2023-02-22T20:25:40;20.07;;;10.10;;
20038;SDS011;21737;42.868;25.320;2023-02-22T20:28:43;18.20;;;10.10;;
20038;SDS011;21737;42.868;25.320;2023-02-22T20:31:45;12.17;;;7.13;;